sensor_id;sensor_type;location;lat;lon;timestamp;P1;durP1;ratioP1;P2;durP2;ratioP2
58071;SDS011;60383;46.626;18.866;2024-02-14T00:01:22;9.77;;;6.50;;
58071;SDS011;60383;46.626;18.866;2024-02-14T00:03:48;9.30;;;6.63;;
58071;SDS011;60383;46.626;18.866;2024-02-14T00:06:14;9.77;;;6.97;;
58071;SDS011;60383;46.626;18.866;2024-02-14T00:08:40;8.40;;;6.13;;
58071;SDS011;60383;46.626;18.866;2024-02-14T00:11:05;8.63;;;6.05;;
58071;SDS011;60383;46.626;18.866;2024-02-14T00:13:31;8.75;;;6.30;;
58071;SDS011;60383;46.626;18.866;2024-02-14T00:15:59;8.48;;;5.80;;
58071;SDS011;60383;46.626;18.866;2024-02-14T00:18:25;10.27;;;6.38;;
58071;SDS011;60383;46.626;18.866;2024-02-14T00:20:50;8.02;;;5.88;;
58071;SDS011;60383;46.626;18.866;2024-02-14T00:23:16;7.75;;;5.72;;
58071;SDS011;60383;46.626;18.866;2024-02-14T00:25:41;8.43;;;6.10;;
58071;SDS011;60383;46.626;18.866;2024-02-14T00:28:06;7.85;;;6.00;;
58071;SDS011;60383;46.626;18.866;2024-02-14T00:30:32;11.60;;;6.40;;
58071;SDS011;60383;46.626;18.866;2024-02-14T00:32:57;8.82;;;6.18;;
58071;SDS011;60383;46.626;18.866;2024-02-14T00:35:23;8.88;;;6.45;;
58071;SDS011;60383;46.626;18.866;2024-02-14T00:37:49;8.85;;;6.20;;
58071;SDS011;60383;46.626;18.866;2024-02-14T00:40:14;9.25;;;6.30;;
58071;SDS011;60383;46.626;18.866;2024-02-14T00:42:40;9.88;;;6.18;;
58071;SDS011;60383;46.626;18.866;2024-02-14T00:45:06;8.60;;;6.13;;
58071;SDS011;60383;46.626;18.866;2024-02-14T00:47:34;9.35;;;6.57;;
58071;SDS011;60383;46.626;18.866;2024-02-14T00:49:59;8.55;;;5.88;;
58071;SDS011;60383;46.626;18.866;2024-02-14T00:52:25;8.95;;;6.22;;
58071;SDS011;60383;46.626;18.866;2024-02-14T00:54:50;9.40;;;6.57;;
58071;SDS011;60383;46.626;18.866;2024-02-14T00:57:16;8.82;;;6.00;;
58071;SDS011;60383;46.626;18.866;2024-02-14T00:59:43;8.68;;;5.80;;
58071;SDS011;60383;46.626;18.866;2024-02-14T01:02:08;7.82;;;5.63;;
58071;SDS011;60383;46.626;18.866;2024-02-14T01:04:34;8.90;;;5.72;;
58071;SDS011;60383;46.626;18.866;2024-02-14T01:07:01;8.77;;;5.80;;
58071;SDS011;60383;46.626;18.866;2024-02-14T01:09:27;7.47;;;5.22;;
58071;SDS011;60383;46.626;18.866;2024-02-14T01:11:53;7.40;;;5.25;;
58071;SDS011;60383;46.626;18.866;2024-02-14T01:14:18;8.27;;;5.97;;
58071;SDS011;60383;46.626;18.866;2024-02-14T01:16:44;7.65;;;5.40;;
58071;SDS011;60383;46.626;18.866;2024-02-14T01:19:10;9.10;;;5.68;;
58071;SDS011;60383;46.626;18.866;2024-02-14T01:21:36;9.52;;;5.80;;
58071;SDS011;60383;46.626;18.866;2024-02-14T01:24:02;8.15;;;5.72;;
58071;SDS011;60383;46.626;18.866;2024-02-14T01:26:30;7.63;;;5.47;;
58071;SDS011;60383;46.626;18.866;2024-02-14T01:28:55;8.93;;;6.40;;
58071;SDS011;60383;46.626;18.866;2024-02-14T01:31:21;8.90;;;5.68;;
58071;SDS011;60383;46.626;18.866;2024-02-14T01:33:47;7.60;;;6.00;;
58071;SDS011;60383;46.626;18.866;2024-02-14T01:36:12;7.35;;;5.30;;
58071;SDS011;60383;46.626;18.866;2024-02-14T01:38:38;8.63;;;5.65;;
58071;SDS011;60383;46.626;18.866;2024-02-14T01:41:04;8.18;;;5.28;;
58071;SDS011;60383;46.626;18.866;2024-02-14T01:43:30;7.95;;;5.30;;
58071;SDS011;60383;46.626;18.866;2024-02-14T01:45:57;8.90;;;5.82;;
58071;SDS011;60383;46.626;18.866;2024-02-14T01:48:32;8.50;;;5.43;;
58071;SDS011;60383;46.626;18.866;2024-02-14T01:51:01;9.13;;;6.40;;
58071;SDS011;60383;46.626;18.866;2024-02-14T01:53:28;9.25;;;5.90;;
58071;SDS011;60383;46.626;18.866;2024-02-14T01:55:58;8.60;;;6.18;;
58071;SDS011;60383;46.626;18.866;2024-02-14T01:58:24;8.93;;;5.82;;
58071;SDS011;60383;46.626;18.866;2024-02-14T02:00:51;8.95;;;5.85;;
58071;SDS011;60383;46.626;18.866;2024-02-14T02:03:21;9.55;;;6.28;;
58071;SDS011;60383;46.626;18.866;2024-02-14T02:05:47;7.97;;;5.68;;
58071;SDS011;60383;46.626;18.866;2024-02-14T02:08:13;8.52;;;5.85;;
58071;SDS011;60383;46.626;18.866;2024-02-14T02:10:39;8.82;;;5.35;;
58071;SDS011;60383;46.626;18.866;2024-02-14T02:13:05;7.95;;;5.15;;
58071;SDS011;60383;46.626;18.866;2024-02-14T02:15:31;8.20;;;5.78;;
58071;SDS011;60383;46.626;18.866;2024-02-14T02:17:56;9.50;;;5.65;;
58071;SDS011;60383;46.626;18.866;2024-02-14T02:20:23;7.20;;;5.25;;
58071;SDS011;60383;46.626;18.866;2024-02-14T02:22:48;7.63;;;5.75;;
58071;SDS011;60383;46.626;18.866;2024-02-14T02:25:14;7.80;;;5.55;;
58071;SDS011;60383;46.626;18.866;2024-02-14T02:27:40;7.03;;;5.47;;
58071;SDS011;60383;46.626;18.866;2024-02-14T02:30:06;7.97;;;5.35;;
58071;SDS011;60383;46.626;18.866;2024-02-14T02:32:36;6.65;;;5.15;;
58071;SDS011;60383;46.626;18.866;2024-02-14T02:35:01;8.48;;;5.28;;
58071;SDS011;60383;46.626;18.866;2024-02-14T02:37:28;8.02;;;5.18;;
58071;SDS011;60383;46.626;18.866;2024-02-14T02:39:55;6.53;;;4.95;;
58071;SDS011;60383;46.626;18.866;2024-02-14T02:42:24;8.13;;;5.53;;
58071;SDS011;60383;46.626;18.866;2024-02-14T02:44:50;7.07;;;5.50;;
58071;SDS011;60383;46.626;18.866;2024-02-14T02:47:15;8.13;;;5.97;;
58071;SDS011;60383;46.626;18.866;2024-02-14T02:49:45;7.93;;;5.38;;
58071;SDS011;60383;46.626;18.866;2024-02-14T02:52:10;8.68;;;5.10;;
58071;SDS011;60383;46.626;18.866;2024-02-14T02:54:36;7.93;;;5.45;;
58071;SDS011;60383;46.626;18.866;2024-02-14T02:57:06;7.72;;;5.60;;
58071;SDS011;60383;46.626;18.866;2024-02-14T02:59:32;7.63;;;5.38;;
58071;SDS011;60383;46.626;18.866;2024-02-14T03:01:58;9.13;;;5.45;;
58071;SDS011;60383;46.626;18.866;2024-02-14T03:04:24;6.95;;;4.95;;
58071;SDS011;60383;46.626;18.866;2024-02-14T03:06:50;8.95;;;5.60;;
58071;SDS011;60383;46.626;18.866;2024-02-14T03:09:15;8.18;;;5.88;;
58071;SDS011;60383;46.626;18.866;2024-02-14T03:11:45;7.10;;;5.43;;
58071;SDS011;60383;46.626;18.866;2024-02-14T03:14:12;7.15;;;5.70;;
58071;SDS011;60383;46.626;18.866;2024-02-14T03:16:38;7.30;;;5.18;;
58071;SDS011;60383;46.626;18.866;2024-02-14T03:19:04;7.22;;;5.45;;
58071;SDS011;60383;46.626;18.866;2024-02-14T03:21:30;7.35;;;5.43;;
58071;SDS011;60383;46.626;18.866;2024-02-14T03:23:58;9.20;;;5.72;;
58071;SDS011;60383;46.626;18.866;2024-02-14T03:26:23;9.38;;;5.60;;
58071;SDS011;60383;46.626;18.866;2024-02-14T03:28:49;8.45;;;5.55;;
58071;SDS011;60383;46.626;18.866;2024-02-14T03:31:14;10.73;;;5.10;;
58071;SDS011;60383;46.626;18.866;2024-02-14T03:33:40;7.50;;;5.70;;
58071;SDS011;60383;46.626;18.866;2024-02-14T03:36:06;8.95;;;5.40;;
58071;SDS011;60383;46.626;18.866;2024-02-14T03:38:32;10.75;;;5.80;;
58071;SDS011;60383;46.626;18.866;2024-02-14T03:40:57;7.65;;;5.22;;
58071;SDS011;60383;46.626;18.866;2024-02-14T03:43:23;7.47;;;5.80;;
58071;SDS011;60383;46.626;18.866;2024-02-14T03:45:49;9.55;;;5.95;;
58071;SDS011;60383;46.626;18.866;2024-02-14T03:48:16;7.22;;;5.50;;
58071;SDS011;60383;46.626;18.866;2024-02-14T03:50:42;9.10;;;5.88;;
58071;SDS011;60383;46.626;18.866;2024-02-14T03:53:08;9.30;;;5.57;;
58071;SDS011;60383;46.626;18.866;2024-02-14T03:55:36;7.88;;;5.95;;
58071;SDS011;60383;46.626;18.866;2024-02-14T03:58:02;6.70;;;5.45;;
58071;SDS011;60383;46.626;18.866;2024-02-14T04:00:28;7.97;;;5.57;;
58071;SDS011;60383;46.626;18.866;2024-02-14T04:02:54;7.00;;;5.35;;
58071;SDS011;60383;46.626;18.866;2024-02-14T04:05:27;6.78;;;5.63;;
58071;SDS011;60383;46.626;18.866;2024-02-14T04:07:53;8.80;;;5.22;;
58071;SDS011;60383;46.626;18.866;2024-02-14T04:10:19;7.38;;;5.35;;
58071;SDS011;60383;46.626;18.866;2024-02-14T04:12:45;6.93;;;5.18;;
58071;SDS011;60383;46.626;18.866;2024-02-14T04:15:11;9.25;;;5.63;;
58071;SDS011;60383;46.626;18.866;2024-02-14T04:17:37;7.38;;;5.22;;
58071;SDS011;60383;46.626;18.866;2024-02-14T04:20:04;8.07;;;5.53;;
58071;SDS011;60383;46.626;18.866;2024-02-14T04:22:30;9.32;;;6.03;;
58071;SDS011;60383;46.626;18.866;2024-02-14T04:24:55;8.18;;;5.32;;
58071;SDS011;60383;46.626;18.866;2024-02-14T04:27:21;6.97;;;5.07;;
58071;SDS011;60383;46.626;18.866;2024-02-14T04:29:47;7.38;;;5.38;;
58071;SDS011;60383;46.626;18.866;2024-02-14T04:32:13;8.30;;;5.32;;
58071;SDS011;60383;46.626;18.866;2024-02-14T04:34:39;8.13;;;5.65;;
58071;SDS011;60383;46.626;18.866;2024-02-14T04:37:05;7.82;;;5.57;;
58071;SDS011;60383;46.626;18.866;2024-02-14T04:39:37;7.93;;;5.70;;
58071;SDS011;60383;46.626;18.866;2024-02-14T04:42:03;7.80;;;5.57;;
58071;SDS011;60383;46.626;18.866;2024-02-14T04:44:30;8.60;;;5.80;;
58071;SDS011;60383;46.626;18.866;2024-02-14T04:46:56;8.07;;;5.68;;
58071;SDS011;60383;46.626;18.866;2024-02-14T04:49:24;9.57;;;5.78;;
58071;SDS011;60383;46.626;18.866;2024-02-14T04:51:50;9.43;;;5.63;;
58071;SDS011;60383;46.626;18.866;2024-02-14T04:54:16;9.65;;;5.85;;
58071;SDS011;60383;46.626;18.866;2024-02-14T04:56:42;8.18;;;6.40;;
58071;SDS011;60383;46.626;18.866;2024-02-14T04:59:07;8.27;;;6.03;;
58071;SDS011;60383;46.626;18.866;2024-02-14T05:01:33;9.10;;;6.13;;
58071;SDS011;60383;46.626;18.866;2024-02-14T05:03:59;10.88;;;6.57;;
58071;SDS011;60383;46.626;18.866;2024-02-14T05:06:25;8.20;;;5.75;;
58071;SDS011;60383;46.626;18.866;2024-02-14T05:08:50;9.95;;;6.28;;
58071;SDS011;60383;46.626;18.866;2024-02-14T05:11:17;8.23;;;5.63;;
58071;SDS011;60383;46.626;18.866;2024-02-14T05:13:43;10.73;;;5.90;;
58071;SDS011;60383;46.626;18.866;2024-02-14T05:16:09;7.72;;;5.72;;
58071;SDS011;60383;46.626;18.866;2024-02-14T05:18:36;8.65;;;5.65;;
58071;SDS011;60383;46.626;18.866;2024-02-14T05:21:04;10.27;;;5.90;;
58071;SDS011;60383;46.626;18.866;2024-02-14T05:23:32;7.93;;;5.80;;
58071;SDS011;60383;46.626;18.866;2024-02-14T05:25:57;10.38;;;5.28;;
58071;SDS011;60383;46.626;18.866;2024-02-14T05:28:23;8.93;;;6.07;;
58071;SDS011;60383;46.626;18.866;2024-02-14T05:30:48;8.57;;;5.53;;
58071;SDS011;60383;46.626;18.866;2024-02-14T05:33:13;6.97;;;5.28;;
58071;SDS011;60383;46.626;18.866;2024-02-14T05:35:39;8.65;;;5.70;;
58071;SDS011;60383;46.626;18.866;2024-02-14T05:38:04;8.35;;;5.15;;
58071;SDS011;60383;46.626;18.866;2024-02-14T05:40:32;11.35;;;6.88;;
58071;SDS011;60383;46.626;18.866;2024-02-14T05:42:58;12.45;;;7.50;;
58071;SDS011;60383;46.626;18.866;2024-02-14T05:45:23;11.88;;;7.97;;
58071;SDS011;60383;46.626;18.866;2024-02-14T05:47:49;12.32;;;7.47;;
58071;SDS011;60383;46.626;18.866;2024-02-14T05:50:14;9.70;;;6.75;;
58071;SDS011;60383;46.626;18.866;2024-02-14T05:52:40;8.32;;;6.10;;
58071;SDS011;60383;46.626;18.866;2024-02-14T05:55:05;8.27;;;5.85;;
58071;SDS011;60383;46.626;18.866;2024-02-14T05:57:31;9.75;;;6.20;;
58071;SDS011;60383;46.626;18.866;2024-02-14T05:59:56;9.02;;;5.97;;
58071;SDS011;60383;46.626;18.866;2024-02-14T06:02:22;8.65;;;6.82;;
58071;SDS011;60383;46.626;18.866;2024-02-14T06:04:47;9.95;;;7.38;;
58071;SDS011;60383;46.626;18.866;2024-02-14T06:07:13;11.27;;;7.43;;
58071;SDS011;60383;46.626;18.866;2024-02-14T06:09:38;11.73;;;7.28;;
58071;SDS011;60383;46.626;18.866;2024-02-14T06:12:04;12.57;;;7.20;;
58071;SDS011;60383;46.626;18.866;2024-02-14T06:14:30;12.85;;;6.70;;
58071;SDS011;60383;46.626;18.866;2024-02-14T06:16:56;10.77;;;6.85;;
58071;SDS011;60383;46.626;18.866;2024-02-14T06:19:22;10.75;;;6.90;;
58071;SDS011;60383;46.626;18.866;2024-02-14T06:21:48;11.40;;;8.23;;
58071;SDS011;60383;46.626;18.866;2024-02-14T06:24:13;11.05;;;7.68;;
58071;SDS011;60383;46.626;18.866;2024-02-14T06:26:39;10.85;;;7.63;;
58071;SDS011;60383;46.626;18.866;2024-02-14T06:29:04;11.75;;;7.55;;
58071;SDS011;60383;46.626;18.866;2024-02-14T06:31:30;7.57;;;6.10;;
58071;SDS011;60383;46.626;18.866;2024-02-14T06:33:55;9.25;;;6.30;;
58071;SDS011;60383;46.626;18.866;2024-02-14T06:36:21;9.63;;;6.85;;
58071;SDS011;60383;46.626;18.866;2024-02-14T06:38:46;7.90;;;6.00;;
58071;SDS011;60383;46.626;18.866;2024-02-14T06:41:12;10.00;;;6.30;;
58071;SDS011;60383;46.626;18.866;2024-02-14T06:43:38;9.77;;;6.82;;
58071;SDS011;60383;46.626;18.866;2024-02-14T06:46:04;10.77;;;7.00;;
58071;SDS011;60383;46.626;18.866;2024-02-14T06:48:31;7.60;;;6.30;;
58071;SDS011;60383;46.626;18.866;2024-02-14T06:50:56;10.27;;;6.38;;
58071;SDS011;60383;46.626;18.866;2024-02-14T06:53:22;9.07;;;6.13;;
58071;SDS011;60383;46.626;18.866;2024-02-14T06:55:47;8.13;;;5.78;;
58071;SDS011;60383;46.626;18.866;2024-02-14T06:58:13;8.95;;;5.65;;
58071;SDS011;60383;46.626;18.866;2024-02-14T07:00:38;8.82;;;5.90;;
58071;SDS011;60383;46.626;18.866;2024-02-14T07:03:04;8.60;;;6.50;;
58071;SDS011;60383;46.626;18.866;2024-02-14T07:05:30;8.20;;;6.07;;
58071;SDS011;60383;46.626;18.866;2024-02-14T07:07:55;7.40;;;5.57;;
58071;SDS011;60383;46.626;18.866;2024-02-14T07:10:21;7.72;;;5.70;;
58071;SDS011;60383;46.626;18.866;2024-02-14T07:12:47;8.32;;;5.65;;
58071;SDS011;60383;46.626;18.866;2024-02-14T07:15:12;9.85;;;6.50;;
58071;SDS011;60383;46.626;18.866;2024-02-14T07:17:38;10.23;;;6.85;;
58071;SDS011;60383;46.626;18.866;2024-02-14T07:20:04;13.45;;;7.28;;
58071;SDS011;60383;46.626;18.866;2024-02-14T07:22:30;8.80;;;6.32;;
58071;SDS011;60383;46.626;18.866;2024-02-14T07:24:56;9.70;;;6.57;;
58071;SDS011;60383;46.626;18.866;2024-02-14T07:27:21;8.15;;;6.10;;
58071;SDS011;60383;46.626;18.866;2024-02-14T07:29:49;10.93;;;7.20;;
58071;SDS011;60383;46.626;18.866;2024-02-14T07:32:14;9.02;;;6.45;;
58071;SDS011;60383;46.626;18.866;2024-02-14T07:34:40;7.88;;;6.30;;
58071;SDS011;60383;46.626;18.866;2024-02-14T07:37:05;9.07;;;6.50;;
58071;SDS011;60383;46.626;18.866;2024-02-14T07:39:32;8.30;;;6.03;;
58071;SDS011;60383;46.626;18.866;2024-02-14T07:42:00;10.43;;;6.45;;
58071;SDS011;60383;46.626;18.866;2024-02-14T07:44:25;8.23;;;6.88;;
58071;SDS011;60383;46.626;18.866;2024-02-14T07:46:51;9.88;;;6.32;;
58071;SDS011;60383;46.626;18.866;2024-02-14T07:49:17;11.25;;;5.93;;
58071;SDS011;60383;46.626;18.866;2024-02-14T07:51:42;8.57;;;6.47;;
58071;SDS011;60383;46.626;18.866;2024-02-14T07:54:08;9.60;;;6.93;;
58071;SDS011;60383;46.626;18.866;2024-02-14T07:56:33;9.77;;;6.20;;
58071;SDS011;60383;46.626;18.866;2024-02-14T07:58:59;9.05;;;6.10;;
58071;SDS011;60383;46.626;18.866;2024-02-14T08:01:25;9.55;;;5.55;;
58071;SDS011;60383;46.626;18.866;2024-02-14T08:03:50;9.43;;;6.32;;
58071;SDS011;60383;46.626;18.866;2024-02-14T08:06:16;7.63;;;5.82;;
58071;SDS011;60383;46.626;18.866;2024-02-14T08:08:42;9.10;;;6.25;;
58071;SDS011;60383;46.626;18.866;2024-02-14T08:11:09;8.48;;;6.00;;
58071;SDS011;60383;46.626;18.866;2024-02-14T08:13:34;10.50;;;6.95;;
58071;SDS011;60383;46.626;18.866;2024-02-14T08:16:00;9.90;;;6.30;;
58071;SDS011;60383;46.626;18.866;2024-02-14T08:18:25;7.95;;;6.55;;
58071;SDS011;60383;46.626;18.866;2024-02-14T08:20:52;8.77;;;6.70;;
58071;SDS011;60383;46.626;18.866;2024-02-14T08:23:18;8.77;;;6.40;;
58071;SDS011;60383;46.626;18.866;2024-02-14T08:25:45;8.60;;;6.20;;
58071;SDS011;60383;46.626;18.866;2024-02-14T08:28:11;8.90;;;6.53;;
58071;SDS011;60383;46.626;18.866;2024-02-14T08:30:36;7.40;;;5.63;;
58071;SDS011;60383;46.626;18.866;2024-02-14T08:33:03;8.50;;;5.97;;
58071;SDS011;60383;46.626;18.866;2024-02-14T08:35:28;7.53;;;5.63;;
58071;SDS011;60383;46.626;18.866;2024-02-14T08:37:54;9.50;;;6.60;;
58071;SDS011;60383;46.626;18.866;2024-02-14T08:40:20;7.45;;;5.65;;
58071;SDS011;60383;46.626;18.866;2024-02-14T08:42:45;7.72;;;5.63;;
58071;SDS011;60383;46.626;18.866;2024-02-14T08:45:11;7.30;;;5.10;;
58071;SDS011;60383;46.626;18.866;2024-02-14T08:47:36;7.25;;;5.50;;
58071;SDS011;60383;46.626;18.866;2024-02-14T08:50:05;7.53;;;4.90;;
58071;SDS011;60383;46.626;18.866;2024-02-14T08:52:31;7.22;;;5.18;;
58071;SDS011;60383;46.626;18.866;2024-02-14T08:54:57;7.72;;;4.97;;
58071;SDS011;60383;46.626;18.866;2024-02-14T08:57:22;7.85;;;5.30;;
58071;SDS011;60383;46.626;18.866;2024-02-14T08:59:49;7.35;;;4.90;;
58071;SDS011;60383;46.626;18.866;2024-02-14T09:02:14;7.25;;;4.50;;
58071;SDS011;60383;46.626;18.866;2024-02-14T09:04:42;6.53;;;4.95;;
58071;SDS011;60383;46.626;18.866;2024-02-14T09:07:07;7.72;;;4.80;;
58071;SDS011;60383;46.626;18.866;2024-02-14T09:09:33;6.28;;;4.45;;
58071;SDS011;60383;46.626;18.866;2024-02-14T09:11:58;8.15;;;4.60;;
58071;SDS011;60383;46.626;18.866;2024-02-14T09:14:28;5.10;;;4.00;;
58071;SDS011;60383;46.626;18.866;2024-02-14T09:16:53;4.68;;;3.78;;
58071;SDS011;60383;46.626;18.866;2024-02-14T09:19:19;5.78;;;3.75;;
58071;SDS011;60383;46.626;18.866;2024-02-14T09:21:44;6.05;;;3.53;;
58071;SDS011;60383;46.626;18.866;2024-02-14T09:24:10;4.88;;;3.72;;
58071;SDS011;60383;46.626;18.866;2024-02-14T09:26:36;4.43;;;3.20;;
58071;SDS011;60383;46.626;18.866;2024-02-14T09:29:03;5.88;;;3.50;;
58071;SDS011;60383;46.626;18.866;2024-02-14T09:31:28;4.25;;;3.55;;
58071;SDS011;60383;46.626;18.866;2024-02-14T09:33:54;5.55;;;3.72;;
58071;SDS011;60383;46.626;18.866;2024-02-14T09:36:22;4.90;;;3.58;;
58071;SDS011;60383;46.626;18.866;2024-02-14T09:38:48;4.13;;;3.50;;
58071;SDS011;60383;46.626;18.866;2024-02-14T09:41:28;5.25;;;4.03;;
58071;SDS011;60383;46.626;18.866;2024-02-14T09:44:01;6.05;;;3.85;;
58071;SDS011;60383;46.626;18.866;2024-02-14T09:46:27;6.25;;;4.53;;
58071;SDS011;60383;46.626;18.866;2024-02-14T09:48:55;4.40;;;3.70;;
58071;SDS011;60383;46.626;18.866;2024-02-14T09:51:24;5.13;;;4.18;;
58071;SDS011;60383;46.626;18.866;2024-02-14T09:53:50;5.60;;;4.28;;
58071;SDS011;60383;46.626;18.866;2024-02-14T09:56:18;4.80;;;4.13;;
58071;SDS011;60383;46.626;18.866;2024-02-14T09:58:47;5.13;;;4.32;;
58071;SDS011;60383;46.626;18.866;2024-02-14T10:01:21;6.22;;;4.22;;
58071;SDS011;60383;46.626;18.866;2024-02-14T10:03:50;6.07;;;4.20;;
58071;SDS011;60383;46.626;18.866;2024-02-14T10:06:17;6.93;;;4.55;;
58071;SDS011;60383;46.626;18.866;2024-02-14T10:08:45;5.55;;;4.45;;
58071;SDS011;60383;46.626;18.866;2024-02-14T10:11:12;6.22;;;4.70;;
58071;SDS011;60383;46.626;18.866;2024-02-14T10:13:39;6.57;;;4.05;;
58071;SDS011;60383;46.626;18.866;2024-02-14T10:16:05;5.63;;;3.83;;
58071;SDS011;60383;46.626;18.866;2024-02-14T10:18:33;6.30;;;4.85;;
58071;SDS011;60383;46.626;18.866;2024-02-14T10:20:59;5.82;;;4.53;;
58071;SDS011;60383;46.626;18.866;2024-02-14T10:23:26;4.63;;;3.97;;
58071;SDS011;60383;46.626;18.866;2024-02-14T10:25:52;5.22;;;4.18;;
58071;SDS011;60383;46.626;18.866;2024-02-14T10:28:21;6.70;;;4.65;;
58071;SDS011;60383;46.626;18.866;2024-02-14T10:30:46;5.55;;;4.18;;
58071;SDS011;60383;46.626;18.866;2024-02-14T10:33:14;6.13;;;4.78;;
58071;SDS011;60383;46.626;18.866;2024-02-14T10:35:40;6.43;;;4.63;;
58071;SDS011;60383;46.626;18.866;2024-02-14T10:38:07;7.97;;;4.88;;
58071;SDS011;60383;46.626;18.866;2024-02-14T10:40:34;5.95;;;4.30;;
58071;SDS011;60383;46.626;18.866;2024-02-14T10:43:01;4.97;;;3.83;;
58071;SDS011;60383;46.626;18.866;2024-02-14T10:45:27;6.07;;;4.07;;
58071;SDS011;60383;46.626;18.866;2024-02-14T10:47:53;4.70;;;3.97;;
58071;SDS011;60383;46.626;18.866;2024-02-14T10:50:22;5.40;;;3.85;;
58071;SDS011;60383;46.626;18.866;2024-02-14T10:52:52;6.63;;;4.20;;
58071;SDS011;60383;46.626;18.866;2024-02-14T10:55:21;6.13;;;4.40;;
58071;SDS011;60383;46.626;18.866;2024-02-14T10:57:54;4.63;;;3.90;;
58071;SDS011;60383;46.626;18.866;2024-02-14T11:00:20;5.30;;;3.90;;
58071;SDS011;60383;46.626;18.866;2024-02-14T11:02:46;5.07;;;3.95;;
58071;SDS011;60383;46.626;18.866;2024-02-14T11:05:14;5.28;;;4.25;;
58071;SDS011;60383;46.626;18.866;2024-02-14T11:07:46;4.75;;;3.97;;
58071;SDS011;60383;46.626;18.866;2024-02-14T11:10:15;4.38;;;3.72;;
58071;SDS011;60383;46.626;18.866;2024-02-14T11:12:42;5.30;;;4.10;;
58071;SDS011;60383;46.626;18.866;2024-02-14T11:17:42;4.60;;;4.18;;
58071;SDS011;60383;46.626;18.866;2024-02-14T11:20:51;6.13;;;4.25;;
58071;SDS011;60383;46.626;18.866;2024-02-14T11:23:01;7.28;;;3.88;;
58071;SDS011;60383;46.626;18.866;2024-02-14T11:25:37;5.30;;;4.13;;
58071;SDS011;60383;46.626;18.866;2024-02-14T11:28:12;6.13;;;3.90;;
58071;SDS011;60383;46.626;18.866;2024-02-14T11:30:40;5.18;;;4.13;;
58071;SDS011;60383;46.626;18.866;2024-02-14T11:33:22;4.60;;;3.60;;
58071;SDS011;60383;46.626;18.866;2024-02-14T11:35:52;5.50;;;3.78;;
58071;SDS011;60383;46.626;18.866;2024-02-14T11:38:20;5.65;;;3.70;;
58071;SDS011;60383;46.626;18.866;2024-02-14T11:40:47;5.20;;;3.42;;
58071;SDS011;60383;46.626;18.866;2024-02-14T11:43:14;6.35;;;3.75;;
58071;SDS011;60383;46.626;18.866;2024-02-14T11:45:42;4.47;;;3.92;;
58071;SDS011;60383;46.626;18.866;2024-02-14T11:48:11;5.05;;;3.80;;
58071;SDS011;60383;46.626;18.866;2024-02-14T11:50:40;4.30;;;3.90;;
58071;SDS011;60383;46.626;18.866;2024-02-14T11:53:08;4.55;;;3.40;;
58071;SDS011;60383;46.626;18.866;2024-02-14T11:55:36;5.50;;;3.65;;
58071;SDS011;60383;46.626;18.866;2024-02-14T11:58:09;4.97;;;3.50;;
58071;SDS011;60383;46.626;18.866;2024-02-14T12:00:41;5.97;;;3.90;;
58071;SDS011;60383;46.626;18.866;2024-02-14T12:03:21;6.57;;;4.20;;
58071;SDS011;60383;46.626;18.866;2024-02-14T12:05:49;6.20;;;4.30;;
58071;SDS011;60383;46.626;18.866;2024-02-14T12:08:16;5.30;;;3.60;;
58071;SDS011;60383;46.626;18.866;2024-02-14T12:10:43;5.47;;;3.30;;
58071;SDS011;60383;46.626;18.866;2024-02-14T12:13:14;5.07;;;3.78;;
58071;SDS011;60383;46.626;18.866;2024-02-14T12:15:43;5.50;;;3.45;;
58071;SDS011;60383;46.626;18.866;2024-02-14T12:18:10;4.38;;;3.67;;
58071;SDS011;60383;46.626;18.866;2024-02-14T12:20:36;5.75;;;3.45;;
58071;SDS011;60383;46.626;18.866;2024-02-14T12:23:02;6.13;;;3.85;;
58071;SDS011;60383;46.626;18.866;2024-02-14T12:25:29;4.70;;;3.58;;
58071;SDS011;60383;46.626;18.866;2024-02-14T12:27:56;4.38;;;3.72;;
58071;SDS011;60383;46.626;18.866;2024-02-14T12:30:22;4.70;;;3.70;;
58071;SDS011;60383;46.626;18.866;2024-02-14T12:32:59;5.55;;;3.83;;
58071;SDS011;60383;46.626;18.866;2024-02-14T12:35:26;7.40;;;4.40;;
58071;SDS011;60383;46.626;18.866;2024-02-14T12:37:52;5.82;;;3.58;;
58071;SDS011;60383;46.626;18.866;2024-02-14T12:40:19;5.60;;;3.55;;
58071;SDS011;60383;46.626;18.866;2024-02-14T12:42:45;5.05;;;3.65;;
58071;SDS011;60383;46.626;18.866;2024-02-14T12:45:10;4.55;;;3.70;;
58071;SDS011;60383;46.626;18.866;2024-02-14T12:47:36;6.75;;;3.60;;
58071;SDS011;60383;46.626;18.866;2024-02-14T12:50:02;4.68;;;3.65;;
58071;SDS011;60383;46.626;18.866;2024-02-14T12:52:27;4.88;;;3.83;;
58071;SDS011;60383;46.626;18.866;2024-02-14T12:54:53;6.40;;;3.70;;
58071;SDS011;60383;46.626;18.866;2024-02-14T12:57:18;4.15;;;3.50;;
58071;SDS011;60383;46.626;18.866;2024-02-14T12:59:46;5.63;;;3.80;;
58071;SDS011;60383;46.626;18.866;2024-02-14T13:02:11;5.88;;;4.03;;
58071;SDS011;60383;46.626;18.866;2024-02-14T13:04:37;4.50;;;3.67;;
58071;SDS011;60383;46.626;18.866;2024-02-14T13:07:03;4.80;;;3.78;;
58071;SDS011;60383;46.626;18.866;2024-02-14T13:09:29;5.25;;;3.60;;
58071;SDS011;60383;46.626;18.866;2024-02-14T13:11:54;6.10;;;3.55;;
58071;SDS011;60383;46.626;18.866;2024-02-14T13:14:20;5.03;;;3.50;;
58071;SDS011;60383;46.626;18.866;2024-02-14T13:16:46;5.72;;;3.90;;
58071;SDS011;60383;46.626;18.866;2024-02-14T13:19:11;5.50;;;3.58;;
58071;SDS011;60383;46.626;18.866;2024-02-14T13:21:36;5.63;;;4.50;;
58071;SDS011;60383;46.626;18.866;2024-02-14T13:24:02;6.47;;;4.18;;
58071;SDS011;60383;46.626;18.866;2024-02-14T13:26:28;6.05;;;3.67;;
58071;SDS011;60383;46.626;18.866;2024-02-14T13:28:54;5.75;;;4.05;;
58071;SDS011;60383;46.626;18.866;2024-02-14T13:31:20;5.93;;;4.20;;
58071;SDS011;60383;46.626;18.866;2024-02-14T13:33:46;6.75;;;4.35;;
58071;SDS011;60383;46.626;18.866;2024-02-14T13:36:12;9.85;;;4.85;;
58071;SDS011;60383;46.626;18.866;2024-02-14T13:38:40;8.27;;;4.75;;
58071;SDS011;60383;46.626;18.866;2024-02-14T13:41:05;5.93;;;4.45;;
58071;SDS011;60383;46.626;18.866;2024-02-14T13:43:31;10.55;;;5.00;;
58071;SDS011;60383;46.626;18.866;2024-02-14T13:45:56;6.40;;;4.70;;
58071;SDS011;60383;46.626;18.866;2024-02-14T13:48:22;6.78;;;4.80;;
58071;SDS011;60383;46.626;18.866;2024-02-14T13:50:47;5.43;;;4.45;;
58071;SDS011;60383;46.626;18.866;2024-02-14T13:53:14;7.30;;;4.75;;
58071;SDS011;60383;46.626;18.866;2024-02-14T13:55:41;7.25;;;5.40;;
58071;SDS011;60383;46.626;18.866;2024-02-14T13:58:07;7.90;;;5.15;;
58071;SDS011;60383;46.626;18.866;2024-02-14T14:00:39;8.63;;;5.90;;
58071;SDS011;60383;46.626;18.866;2024-02-14T14:03:04;9.35;;;6.25;;
58071;SDS011;60383;46.626;18.866;2024-02-14T14:05:30;8.43;;;5.60;;
58071;SDS011;60383;46.626;18.866;2024-02-14T14:07:55;9.20;;;5.47;;
58071;SDS011;60383;46.626;18.866;2024-02-14T14:10:22;10.77;;;5.10;;
58071;SDS011;60383;46.626;18.866;2024-02-14T14:12:50;7.35;;;5.35;;
58071;SDS011;60383;46.626;18.866;2024-02-14T14:15:15;8.50;;;5.28;;
58071;SDS011;60383;46.626;18.866;2024-02-14T14:17:41;8.38;;;5.45;;
58071;SDS011;60383;46.626;18.866;2024-02-14T14:20:06;9.80;;;5.28;;
58071;SDS011;60383;46.626;18.866;2024-02-14T14:22:33;6.60;;;4.82;;
58071;SDS011;60383;46.626;18.866;2024-02-14T14:24:58;8.07;;;5.30;;
58071;SDS011;60383;46.626;18.866;2024-02-14T14:27:24;7.45;;;5.43;;
58071;SDS011;60383;46.626;18.866;2024-02-14T14:29:49;8.40;;;5.32;;
58071;SDS011;60383;46.626;18.866;2024-02-14T14:32:14;7.47;;;5.57;;